createdAt,value
2022-08-07T00:00:23.786Z,3.17
2022-08-07T00:02:51.035Z,4.57
2022-08-07T00:05:20.034Z,4.60
2022-08-07T00:07:46.989Z,4.07
2022-08-07T00:10:26.944Z,5.63
2022-08-07T00:13:00.224Z,6.50
2022-08-07T00:15:37.798Z,2.85
2022-08-07T00:18:19.549Z,8.82
2022-08-07T00:20:51.238Z,3.95
2022-08-07T00:23:18.148Z,5.93
2022-08-07T00:25:51.818Z,3.13
2022-08-07T00:28:33.200Z,5.13
2022-08-07T00:31:06.223Z,2.85
2022-08-07T00:33:39.628Z,6.13
2022-08-07T00:36:07.442Z,3.33
2022-08-07T00:38:36.519Z,5.03
2022-08-07T00:41:04.887Z,5.07
2022-08-07T00:44:00.888Z,3.85
2022-08-07T00:46:22.933Z,3.65
2022-08-07T00:48:51.684Z,3.08
2022-08-07T00:51:18.311Z,4.30
2022-08-07T00:53:54.964Z,7.38
2022-08-07T00:56:22.930Z,2.97
2022-08-07T00:58:49.722Z,4.82
2022-08-07T01:01:17.534Z,3.28
2022-08-07T01:03:55.546Z,4.25
2022-08-07T01:06:26.693Z,5.55
2022-08-07T01:08:55.760Z,4.50
2022-08-07T01:12:09.622Z,4.65
2022-08-07T01:14:09.957Z,5.88
2022-08-07T01:16:37.109Z,3.40
2022-08-07T01:19:04.912Z,3.38
2022-08-07T01:21:41.482Z,3.05
2022-08-07T01:24:09.879Z,3.72
2022-08-07T01:26:37.177Z,4.13
2022-08-07T01:29:04.634Z,3.22
2022-08-07T01:31:42.897Z,3.00
2022-08-07T01:34:17.751Z,4.03
2022-08-07T01:36:45.640Z,4.28
2022-08-07T01:39:22.948Z,3.78
2022-08-07T01:42:07.454Z,4.43
2022-08-07T01:44:47.761Z,4.00
2022-08-07T01:48:20.602Z,4.22
2022-08-07T01:50:02.020Z,3.67
2022-08-07T01:52:31.361Z,5.88
2022-08-07T01:54:58.916Z,6.47
2022-08-07T01:57:28.696Z,4.43
2022-08-07T02:00:01.058Z,4.25
2022-08-07T02:03:12.483Z,5.50
2022-08-07T02:05:47.510Z,3.78
2022-08-07T02:08:10.239Z,5.88
2022-08-07T02:10:42.174Z,4.07
2022-08-07T02:13:10.389Z,6.05
2022-08-07T02:15:46.970Z,6.13
2022-08-07T02:18:13.568Z,4.43
2022-08-07T02:20:42.210Z,5.05
2022-08-07T02:23:16.564Z,4.70
2022-08-07T02:26:31.598Z,5.22
2022-08-07T02:28:40.376Z,5.05
2022-08-07T02:31:10.148Z,4.60
2022-08-07T02:34:11.003Z,5.32
2022-08-07T02:36:45.359Z,6.43
2022-08-07T02:39:43.495Z,5.65
2022-08-07T02:42:03.471Z,7.00
2022-08-07T02:44:40.024Z,6.28
2022-08-07T02:47:19.341Z,4.80
2022-08-07T02:49:58.044Z,5.25
2022-08-07T02:52:48.974Z,8.10
2022-08-07T02:55:28.615Z,5.38
2022-08-07T02:58:07.464Z,5.47
2022-08-07T03:00:39.209Z,5.32
2022-08-07T03:03:07.857Z,5.80
2022-08-07T03:05:43.587Z,5.10
2022-08-07T03:08:13.178Z,5.05
2022-08-07T03:10:47.131Z,6.72
2022-08-07T03:13:19.432Z,5.38
2022-08-07T03:15:55.823Z,6.38
2022-08-07T03:18:35.097Z,6.18
2022-08-07T03:21:08.467Z,5.30
2022-08-07T03:24:20.055Z,5.38
2022-08-07T03:26:27.864Z,5.15
2022-08-07T03:28:55.335Z,5.55
2022-08-07T03:31:24.720Z,5.60
2022-08-07T03:33:57.527Z,5.68
2022-08-07T03:36:25.795Z,6.00
2022-08-07T03:38:55.198Z,5.93
2022-08-07T03:41:42.094Z,6.05
2022-08-07T03:44:10.523Z,5.63
2022-08-07T03:46:38.023Z,6.03
2022-08-07T03:49:24.786Z,5.68
2022-08-07T03:52:01.112Z,10.43
2022-08-07T03:54:35.139Z,5.53
2022-08-07T03:57:07.204Z,6.72
2022-08-07T03:59:35.092Z,7.22
2022-08-07T04:02:01.952Z,7.30
2022-08-07T04:04:29.421Z,6.65
2022-08-07T04:07:02.223Z,9.88
2022-08-07T04:09:50.577Z,6.05
2022-08-07T04:12:26.826Z,6.28
2022-08-07T04:14:56.747Z,7.55
2022-08-07T04:17:23.421Z,6.68
2022-08-07T04:20:11.178Z,5.78
2022-08-07T04:22:38.707Z,6.07
2022-08-07T04:25:19.903Z,5.97
2022-08-07T04:27:59.028Z,5.72
2022-08-07T04:30:43.834Z,6.47
2022-08-07T04:33:19.537Z,8.60
2022-08-07T04:35:50.503Z,6.15
2022-08-07T04:38:21.803Z,6.38
2022-08-07T04:40:51.769Z,5.63
2022-08-07T04:44:10.110Z,5.80
2022-08-07T04:46:20.187Z,6.15
2022-08-07T04:49:17.471Z,5.50
2022-08-07T04:51:53.617Z,6.93
2022-08-07T04:54:39.180Z,6.75
2022-08-07T04:58:09.996Z,6.00
2022-08-07T05:00:30.395Z,5.45
2022-08-07T05:03:17.010Z,8.93
2022-08-07T05:06:16.519Z,7.13
2022-08-07T05:09:00.762Z,7.88
2022-08-07T05:11:57.301Z,6.60
2022-08-07T05:14:55.283Z,6.63
2022-08-07T05:17:12.007Z,7.13
2022-08-07T05:19:44.828Z,7.60
2022-08-07T05:22:26.540Z,7.38
2022-08-07T05:24:57.347Z,7.85
2022-08-07T05:28:02.926Z,7.63
2022-08-07T05:30:30.005Z,7.13
2022-08-07T05:32:58.449Z,7.15
2022-08-07T05:35:33.429Z,7.85
2022-08-07T05:38:10.330Z,10.43
2022-08-07T05:40:51.636Z,7.18
2022-08-07T05:43:19.824Z,7.90
2022-08-07T05:46:06.715Z,8.15
2022-08-07T05:48:34.075Z,9.85
2022-08-07T05:51:01.576Z,7.18
2022-08-07T05:54:13.062Z,10.05
2022-08-07T05:56:20.892Z,6.78
2022-08-07T05:58:56.813Z,7.97
2022-08-07T06:01:34.827Z,7.50
2022-08-07T06:04:04.505Z,7.75
2022-08-07T06:06:36.738Z,7.65
2022-08-07T06:09:07.081Z,7.63
2022-08-07T06:11:37.827Z,5.90
2022-08-07T06:14:11.477Z,9.80
2022-08-07T06:16:43.969Z,6.18
2022-08-07T06:19:18.013Z,8.70
2022-08-07T06:22:14.981Z,6.25
2022-08-07T06:24:46.309Z,6.00
2022-08-07T06:27:59.623Z,7.75
2022-08-07T06:30:32.064Z,7.07
2022-08-07T06:32:55.790Z,5.43
2022-08-07T06:35:22.213Z,9.73
2022-08-07T06:37:49.550Z,6.20
2022-08-07T06:40:21.219Z,5.97
2022-08-07T06:42:51.599Z,6.45
2022-08-07T06:45:36.167Z,5.80
2022-08-07T06:48:05.873Z,5.80
2022-08-07T06:50:47.714Z,5.72
2022-08-07T06:54:11.795Z,7.57
2022-08-07T06:56:07.432Z,5.35
2022-08-07T06:58:36.941Z,7.00
2022-08-07T07:01:12.039Z,7.70
2022-08-07T07:03:48.166Z,4.07
2022-08-07T07:06:26.153Z,5.53
2022-08-07T07:08:52.854Z,5.22
2022-08-07T07:12:08.960Z,5.45
2022-08-07T07:14:08.476Z,4.97
2022-08-07T07:16:45.069Z,4.03
2022-08-07T07:19:55.577Z,3.55
2022-08-07T07:22:34.416Z,3.88
2022-08-07T07:24:58.536Z,3.40
2022-08-07T07:27:58.397Z,3.90
2022-08-07T07:30:37.941Z,3.33
2022-08-07T07:33:07.779Z,5.35
2022-08-07T07:35:54.327Z,3.78
2022-08-07T07:38:23.301Z,3.92
2022-08-07T07:40:50.603Z,3.42
2022-08-07T07:43:18.817Z,2.33
2022-08-07T07:46:37.201Z,4.10
2022-08-07T07:48:41.494Z,2.53
2022-08-07T07:51:12.536Z,3.63
2022-08-07T07:53:51.289Z,4.13
2022-08-07T07:56:19.352Z,4.22
2022-08-07T07:58:58.182Z,6.93
2022-08-07T08:02:03.857Z,2.30
2022-08-07T08:04:12.085Z,2.42
2022-08-07T08:06:50.863Z,1.85
2022-08-07T08:09:20.101Z,2.33
2022-08-07T08:12:02.885Z,1.97
2022-08-07T08:14:32.504Z,4.25
2022-08-07T08:17:56.305Z,4.75
2022-08-07T08:20:18.591Z,3.45
2022-08-07T08:23:00.496Z,2.78
2022-08-07T08:25:49.294Z,2.03
2022-08-07T08:28:24.096Z,1.92
2022-08-07T08:31:06.306Z,3.28
2022-08-07T08:33:34.212Z,4.07
2022-08-07T08:36:01.707Z,2.17
2022-08-07T08:38:38.589Z,2.88
2022-08-07T08:41:20.659Z,2.35
2022-08-07T08:43:56.236Z,4.07
2022-08-07T08:46:55.007Z,3.60
2022-08-07T08:49:32.938Z,3.15
2022-08-07T08:52:14.437Z,2.00
2022-08-07T08:55:07.873Z,3.38
2022-08-07T09:00:06.732Z,2.08
2022-08-07T09:02:38.930Z,3.17
2022-08-07T09:05:36.807Z,2.17
2022-08-07T09:08:28.628Z,6.55
2022-08-07T09:11:24.500Z,4.93
2022-08-07T09:14:07.196Z,6.15
2022-08-07T09:16:42.844Z,3.97
2022-08-07T09:19:51.289Z,1.95
2022-08-07T09:24:29.046Z,2.58
2022-08-07T09:25:17.269Z,2.05
2022-08-07T09:28:00.060Z,2.00
2022-08-07T09:30:32.600Z,2.08
2022-08-07T09:33:41.247Z,4.05
2022-08-07T09:36:21.688Z,2.47
2022-08-07T09:39:18.149Z,3.80
2022-08-07T09:42:07.739Z,2.00
2022-08-07T09:47:27.298Z,3.22
2022-08-07T09:47:59.533Z,4.47
2022-08-07T09:50:35.210Z,2.10
2022-08-07T09:53:02.676Z,1.70
2022-08-07T09:56:04.486Z,2.80
2022-08-07T09:58:43.395Z,2.92
2022-08-07T10:01:50.607Z,2.00
2022-08-07T10:04:28.101Z,1.70
2022-08-07T10:07:39.809Z,1.60
2022-08-07T10:10:12.106Z,4.45
2022-08-07T10:13:03.743Z,1.65
2022-08-07T10:15:37.780Z,1.83
2022-08-07T10:18:11.055Z,1.75
2022-08-07T10:20:38.769Z,2.05
2022-08-07T10:24:05.379Z,3.08
2022-08-07T10:26:24.923Z,1.35
2022-08-07T10:29:12.331Z,1.88
2022-08-07T10:31:39.651Z,5.13
2022-08-07T10:34:31.960Z,2.13
2022-08-07T10:37:48.576Z,1.25
2022-08-07T10:40:33.941Z,1.75
2022-08-07T10:43:08.692Z,2.03
2022-08-07T10:45:44.568Z,1.95
2022-08-07T10:48:23.859Z,4.35
2022-08-07T10:50:55.962Z,2.40
2022-08-07T10:53:24.907Z,1.55
2022-08-07T10:56:02.542Z,1.70
2022-08-07T10:58:40.463Z,1.77
2022-08-07T11:01:19.063Z,2.72
2022-08-07T11:04:16.550Z,3.22
2022-08-07T11:06:58.064Z,1.52
2022-08-07T11:10:09.999Z,4.50
2022-08-07T11:12:32.204Z,1.38
2022-08-07T11:15:02.411Z,4.18
2022-08-07T11:17:43.089Z,5.07
2022-08-07T11:20:22.520Z,1.50
2022-08-07T11:22:54.148Z,5.47
2022-08-07T11:25:21.104Z,2.28
2022-08-07T11:28:01.369Z,2.65
2022-08-07T11:30:41.439Z,2.13
2022-08-07T11:33:15.140Z,1.80
2022-08-07T11:36:00.199Z,2.67
2022-08-07T11:38:30.371Z,2.08
2022-08-07T11:41:18.282Z,2.03
2022-08-07T11:44:12.198Z,1.70
2022-08-07T11:46:57.832Z,3.70
2022-08-07T11:50:18.573Z,3.78
2022-08-07T11:56:25.256Z,1.98
2022-08-07T11:58:21.306Z,5.35
2022-08-07T12:01:20.285Z,2.00
2022-08-07T12:04:09.077Z,1.75
2022-08-07T12:06:51.557Z,2.85
2022-08-07T12:09:41.759Z,7.93
2022-08-07T12:12:12.830Z,2.20
2022-08-07T12:15:01.419Z,3.17
2022-08-07T12:17:57.813Z,2.28
2022-08-07T12:20:32.463Z,2.13
2022-08-07T12:23:37.441Z,2.53
2022-08-07T12:26:30.973Z,2.22
2022-08-07T12:29:15.908Z,3.55
2022-08-07T12:32:02.266Z,2.25
2022-08-07T12:34:32.449Z,1.40
2022-08-07T12:37:02.149Z,1.50
2022-08-07T12:39:42.698Z,2.47
2022-08-07T12:42:12.049Z,1.80
2022-08-07T12:44:40.472Z,2.10
2022-08-07T12:47:21.860Z,1.85
2022-08-07T12:50:04.843Z,1.73
2022-08-07T12:52:34.529Z,1.70
2022-08-07T12:55:05.667Z,1.80
2022-08-07T12:58:00.437Z,1.70
2022-08-07T13:00:35.929Z,1.40
2022-08-07T13:06:03.376Z,1.40
2022-08-07T13:08:39.659Z,1.85
2022-08-07T13:11:25.167Z,4.15
2022-08-07T13:14:01.717Z,1.80
2022-08-07T13:16:50.919Z,1.80
2022-08-07T13:19:50.508Z,7.68
2022-08-07T13:22:27.684Z,2.42
2022-08-07T13:24:57.122Z,3.03
2022-08-07T13:28:05.621Z,2.60
2022-08-07T13:30:19.504Z,2.75
2022-08-07T13:34:31.849Z,1.73
2022-08-07T13:36:05.968Z,2.60
2022-08-07T13:38:54.450Z,2.13
2022-08-07T13:41:27.823Z,1.98
2022-08-07T13:43:55.913Z,1.70
2022-08-07T13:46:32.833Z,2.05
2022-08-07T13:49:00.814Z,3.95
2022-08-07T13:52:18.061Z,1.67
2022-08-07T13:54:27.692Z,2.00
2022-08-07T13:56:56.435Z,1.80
2022-08-07T13:59:30.197Z,1.83
2022-08-07T14:02:14.863Z,1.33
2022-08-07T14:04:55.280Z,1.83
2022-08-07T14:07:23.628Z,2.67
2022-08-07T14:10:12.530Z,1.88
2022-08-07T14:12:54.595Z,1.45
2022-08-07T14:15:34.956Z,1.40
2022-08-07T14:18:30.473Z,1.98
2022-08-07T14:21:20.936Z,1.00
2022-08-07T14:24:13.830Z,1.52
2022-08-07T14:26:54.638Z,1.30
2022-08-07T14:32:10.048Z,1.35
2022-08-07T14:34:46.439Z,1.80
2022-08-07T14:37:16.463Z,4.85
2022-08-07T14:40:17.259Z,1.45
2022-08-07T14:42:32.313Z,2.08
2022-08-07T14:45:21.706Z,1.92
2022-08-07T14:47:49.333Z,1.88
2022-08-07T14:50:18.892Z,2.50
2022-08-07T14:52:50.106Z,5.18
2022-08-07T14:55:20.464Z,2.67
2022-08-07T15:00:36.296Z,2.70
2022-08-07T15:03:19.088Z,6.13
2022-08-07T15:06:04.052Z,1.58
2022-08-07T15:08:50.152Z,1.92
2022-08-07T15:11:53.192Z,2.25
2022-08-07T15:14:11.495Z,2.33
2022-08-07T15:16:54.587Z,2.72
2022-08-07T15:20:30.741Z,3.08
2022-08-07T15:22:31.442Z,6.28
2022-08-07T15:25:17.058Z,1.80
2022-08-07T15:30:36.461Z,3.22
2022-08-07T15:33:33.902Z,1.80
2022-08-07T15:38:59.111Z,3.45
2022-08-07T15:42:44.981Z,2.22
2022-08-07T15:44:17.952Z,3.20
2022-08-07T15:46:51.860Z,3.47
2022-08-07T15:52:10.679Z,3.45
2022-08-07T15:54:41.949Z,2.50
2022-08-07T15:57:10.717Z,1.95
2022-08-07T15:59:55.009Z,4.00
2022-08-07T16:02:26.528Z,2.55
2022-08-07T16:05:03.380Z,3.33
2022-08-07T16:08:33.089Z,1.95
2022-08-07T16:10:27.072Z,5.38
2022-08-07T16:13:57.867Z,1.85
2022-08-07T16:16:47.791Z,5.03
2022-08-07T16:19:42.096Z,1.90
2022-08-07T16:22:31.808Z,2.08
2022-08-07T16:25:53.046Z,3.38
2022-08-07T16:30:06.977Z,3.10
2022-08-07T16:31:09.968Z,2.25
2022-08-07T16:34:02.520Z,2.10
2022-08-07T16:36:31.175Z,8.00
2022-08-07T16:39:02.153Z,2.45
2022-08-07T16:41:28.642Z,3.50
2022-08-07T16:44:46.249Z,5.65
2022-08-07T16:47:16.706Z,3.45
2022-08-07T16:50:28.562Z,7.85
2022-08-07T16:53:14.809Z,2.50
2022-08-07T16:55:53.342Z,3.30
2022-08-07T16:58:19.640Z,2.22
2022-08-07T17:00:58.469Z,6.22
2022-08-07T17:03:58.392Z,3.38
2022-08-07T17:06:44.214Z,2.15
2022-08-07T17:10:05.223Z,6.10
2022-08-07T17:12:35.571Z,5.78
2022-08-07T17:15:15.669Z,3.05
2022-08-07T17:17:48.301Z,7.93
2022-08-07T17:20:37.430Z,2.85
2022-08-07T17:23:22.530Z,6.40
2022-08-07T17:26:22.560Z,2.50
2022-08-07T17:29:04.812Z,3.60
2022-08-07T17:31:44.096Z,2.72
2022-08-07T17:34:35.119Z,3.30
2022-08-07T17:38:05.500Z,5.70
2022-08-07T17:40:17.682Z,3.88
2022-08-07T17:42:58.431Z,3.13
2022-08-07T17:45:37.246Z,2.47
2022-08-07T17:48:03.642Z,2.88
2022-08-07T17:50:47.168Z,5.40
2022-08-07T17:53:59.845Z,3.03
2022-08-07T17:56:28.543Z,6.25
2022-08-07T17:58:56.700Z,5.57
2022-08-07T18:01:34.773Z,3.13
2022-08-07T18:04:16.415Z,3.72
2022-08-07T18:06:47.380Z,3.65
2022-08-07T18:10:04.761Z,7.15
2022-08-07T18:12:30.445Z,2.20
2022-08-07T18:15:08.852Z,5.10
2022-08-07T18:18:47.450Z,2.88
2022-08-07T18:21:04.199Z,5.50
2022-08-07T18:23:57.093Z,2.28
2022-08-07T18:26:31.122Z,3.85
2022-08-07T18:30:07.510Z,3.63
2022-08-07T18:31:56.000Z,4.63
2022-08-07T18:34:35.757Z,5.03
2022-08-07T18:38:55.245Z,5.22
2022-08-07T18:40:17.945Z,7.03
2022-08-07T18:45:42.809Z,3.25
2022-08-07T18:50:04.766Z,6.10
2022-08-07T18:51:11.891Z,3.45
2022-08-07T18:53:48.645Z,3.78
2022-08-07T18:56:35.384Z,3.55
2022-08-07T18:59:06.717Z,5.55
2022-08-07T19:02:32.838Z,9.77
2022-08-07T19:04:57.892Z,3.67
2022-08-07T19:07:34.998Z,4.32
2022-08-07T19:10:04.923Z,10.52
2022-08-07T19:12:48.688Z,8.38
2022-08-07T19:16:05.848Z,3.05
2022-08-07T19:18:45.029Z,6.70
2022-08-07T19:21:51.306Z,5.93
2022-08-07T19:24:05.489Z,7.00
2022-08-07T19:27:02.060Z,5.03
2022-08-07T19:31:06.200Z,6.78
2022-08-07T19:32:25.906Z,6.40
2022-08-07T19:35:03.069Z,3.20
2022-08-07T19:37:56.462Z,6.25
2022-08-07T19:40:30.794Z,6.68
2022-08-07T19:42:59.636Z,4.25
2022-08-07T19:46:05.147Z,7.68
2022-08-07T19:48:24.508Z,4.22
2022-08-07T19:50:53.141Z,3.58
2022-08-07T19:54:34.579Z,4.82
2022-08-07T19:57:24.922Z,7.82
2022-08-07T19:58:57.446Z,6.63
2022-08-07T20:01:52.190Z,6.05
2022-08-07T20:04:12.346Z,9.05
2022-08-07T20:07:03.491Z,8.35
2022-08-07T20:10:36.312Z,6.25
2022-08-07T20:12:35.971Z,8.90
2022-08-07T20:15:03.813Z,6.95
2022-08-07T20:17:32.153Z,5.05
2022-08-07T20:20:05.742Z,7.30
2022-08-07T20:22:36.002Z,5.05
2022-08-07T20:25:06.316Z,11.65
2022-08-07T20:27:46.440Z,3.95
2022-08-07T20:30:14.800Z,6.63
2022-08-07T20:32:54.428Z,12.35
2022-08-07T20:35:26.446Z,7.97
2022-08-07T20:40:32.926Z,4.32
2022-08-07T20:43:02.127Z,7.90
2022-08-07T20:45:33.396Z,8.40
2022-08-07T20:48:28.444Z,7.85
2022-08-07T20:50:57.122Z,11.63
2022-08-07T20:53:25.957Z,6.15
2022-08-07T20:56:14.395Z,6.65
2022-08-07T20:58:46.440Z,9.95
2022-08-07T21:01:19.585Z,8.13
2022-08-07T21:04:13.135Z,8.73
2022-08-07T21:06:36.395Z,6.03
2022-08-07T21:09:12.857Z,7.95
2022-08-07T21:11:51.027Z,7.65
2022-08-07T21:14:33.998Z,17.00
2022-08-07T21:18:00.752Z,7.55
2022-08-07T21:19:51.784Z,12.30
2022-08-07T21:22:33.448Z,5.32
2022-08-07T21:25:12.396Z,9.50
2022-08-07T21:28:01.988Z,6.57
2022-08-07T21:30:41.911Z,7.32
2022-08-07T21:33:11.313Z,6.82
2022-08-07T21:36:05.825Z,7.10
2022-08-07T21:38:46.374Z,7.75
2022-08-07T21:41:16.460Z,6.60
2022-08-07T21:43:56.172Z,6.15
2022-08-07T21:46:43.314Z,13.05
2022-08-07T21:49:29.146Z,10.00
2022-08-07T21:52:16.668Z,6.13
2022-08-07T21:55:02.015Z,10.05
2022-08-07T21:57:44.979Z,9.32
2022-08-07T22:00:25.062Z,6.78
2022-08-07T22:03:07.278Z,6.88
2022-08-07T22:05:46.099Z,6.70
2022-08-07T22:08:18.845Z,8.73
2022-08-07T22:10:49.722Z,5.40
2022-08-07T22:13:17.035Z,10.02
2022-08-07T22:16:42.750Z,5.72
2022-08-07T22:18:47.983Z,9.90
2022-08-07T22:21:16.896Z,9.05
2022-08-07T22:24:02.852Z,10.27
2022-08-07T22:26:33.955Z,11.57
2022-08-07T22:29:03.121Z,9.75
2022-08-07T22:32:00.338Z,7.68
2022-08-07T22:34:37.314Z,8.80
2022-08-07T22:37:03.642Z,10.32
2022-08-07T22:39:54.529Z,7.97
2022-08-07T22:42:25.898Z,8.88
2022-08-07T22:44:59.135Z,6.45
2022-08-07T22:47:44.814Z,7.10
2022-08-07T22:50:33.198Z,10.68
2022-08-07T22:53:02.583Z,9.18
2022-08-07T22:55:29.926Z,10.23
2022-08-07T22:57:56.785Z,9.13
2022-08-07T23:00:50.301Z,7.70
2022-08-07T23:03:28.315Z,8.40
2022-08-07T23:06:09.091Z,10.00
2022-08-07T23:10:05.321Z,9.07
2022-08-07T23:12:06.350Z,7.25
2022-08-07T23:14:37.776Z,7.45
2022-08-07T23:17:04.179Z,7.07
2022-08-07T23:20:03.015Z,11.20
2022-08-07T23:22:30.881Z,4.95
2022-08-07T23:25:16.923Z,6.57
2022-08-07T23:28:21.982Z,8.93
2022-08-07T23:31:07.143Z,9.30
2022-08-07T23:34:36.922Z,10.20
2022-08-07T23:37:19.479Z,6.28
2022-08-07T23:39:48.539Z,11.70
2022-08-07T23:42:31.242Z,11.02
2022-08-07T23:45:15.287Z,6.03
2022-08-07T23:48:21.968Z,8.63
2022-08-07T23:50:56.776Z,9.02
2022-08-07T23:53:49.779Z,7.60
2022-08-07T23:56:35.167Z,7.03
